createdAt,value
2023-05-08T00:00:50.156Z,100659.38
2023-05-08T00:03:18.307Z,100675.56
2023-05-08T00:05:46.567Z,100669.88
2023-05-08T00:08:18.305Z,100661.06
2023-05-08T00:10:49.850Z,100664.41
2023-05-08T00:13:19.610Z,100672.38
2023-05-08T00:15:48.506Z,100670.41
2023-05-08T00:18:19.363Z,100662.19
2023-05-08T00:20:47.453Z,100663.88
2023-05-08T00:23:15.559Z,100663.53
2023-05-08T00:25:45.234Z,100671.22
2023-05-08T00:28:15.596Z,100670.88
2023-05-08T00:30:45.578Z,100675.47
2023-05-08T00:33:14.366Z,100666.06
2023-05-08T00:35:44.678Z,100676.09
2023-05-08T00:38:12.865Z,100669.09
2023-05-08T00:40:43.776Z,100671.50
2023-05-08T00:43:15.089Z,100672.41
2023-05-08T00:45:42.867Z,100673.97
2023-05-08T00:48:10.953Z,100664.34
2023-05-08T00:50:38.844Z,100675.06
2023-05-08T00:53:07.975Z,100667.69
2023-05-08T00:55:36.079Z,100670.41
2023-05-08T00:58:04.822Z,100671.34
2023-05-08T01:00:35.514Z,100675.38
2023-05-08T01:03:03.775Z,100679.22
2023-05-08T01:05:32.165Z,100683.50
2023-05-08T01:08:00.195Z,100675.19
2023-05-08T01:10:44.100Z,100679.09
2023-05-08T01:13:17.837Z,100676.13
2023-05-08T01:15:51.755Z,100688.22
2023-05-08T01:18:29.129Z,100680.25
2023-05-08T01:21:08.672Z,100679.94
2023-05-08T01:24:17.470Z,100691.59
2023-05-08T01:27:30.959Z,100688.97
2023-05-08T01:30:29.441Z,100693.59
2023-05-08T01:33:03.665Z,100693.59
2023-05-08T01:35:40.790Z,100695.16
2023-05-08T01:38:20.634Z,100700.03
2023-05-08T01:40:56.435Z,100694.19
2023-05-08T01:43:31.317Z,100689.78
2023-05-08T01:46:06.472Z,100688.72
2023-05-08T01:48:40.285Z,100703.94
2023-05-08T01:51:13.461Z,100699.78
2023-05-08T01:53:46.033Z,100703.34
2023-05-08T01:56:19.568Z,100702.97
2023-05-08T01:58:49.598Z,100704.28
2023-05-08T02:01:23.284Z,100701.22
2023-05-08T02:03:56.508Z,100711.44
2023-05-08T02:06:26.933Z,100705.84
2023-05-08T02:08:58.542Z,100713.22
2023-05-08T02:11:27.183Z,100708.47
2023-05-08T02:13:58.884Z,100714.97
2023-05-08T02:16:27.974Z,100719.13
2023-05-08T02:19:02.119Z,100721.88
2023-05-08T02:21:33.316Z,100720.81
2023-05-08T02:24:03.459Z,100712.38
2023-05-08T02:26:34.998Z,100718.22
2023-05-08T02:29:04.836Z,100729.84
2023-05-08T02:31:33.795Z,100729.34
2023-05-08T02:34:07.566Z,100723.53
2023-05-08T02:36:37.290Z,100715.78
2023-05-08T02:39:09.407Z,100727.22
2023-05-08T02:41:40.178Z,100724.13
2023-05-08T02:44:08.328Z,100733.75
2023-05-08T02:46:45.204Z,100735.72
2023-05-08T02:49:33.907Z,100740.72
2023-05-08T02:52:09.746Z,100729.78
2023-05-08T02:54:47.520Z,100735.59
2023-05-08T02:57:23.187Z,100736.91
2023-05-08T02:59:58.504Z,100742.84
2023-05-08T03:02:36.413Z,100746.88
2023-05-08T03:05:17.098Z,100748.53
2023-05-08T03:07:52.202Z,100731.66
2023-05-08T03:10:22.550Z,100729.81
2023-05-08T03:12:54.466Z,100734.06
2023-05-08T03:15:27.930Z,100737.00
2023-05-08T03:18:04.129Z,100733.81
2023-05-08T03:20:40.782Z,100737.44
2023-05-08T03:23:10.781Z,100724.03
2023-05-08T03:25:41.058Z,100725.69
2023-05-08T03:28:09.641Z,100742.44
2023-05-08T03:30:40.203Z,100737.00
2023-05-08T03:33:09.598Z,100725.25
2023-05-08T03:35:40.045Z,100740.41
2023-05-08T03:38:12.211Z,100732.00
2023-05-08T03:40:42.821Z,100739.91
2023-05-08T03:43:11.118Z,100748.44
2023-05-08T03:45:40.275Z,100737.41
2023-05-08T03:48:10.323Z,100742.97
2023-05-08T03:50:39.949Z,100740.97
2023-05-08T03:53:13.111Z,100737.16
2023-05-08T03:55:45.568Z,100744.66
2023-05-08T03:58:22.258Z,100730.88
2023-05-08T04:01:00.349Z,100754.06
2023-05-08T04:03:47.395Z,100752.06
2023-05-08T04:06:28.729Z,100752.84
2023-05-08T04:09:06.884Z,100757.84
2023-05-08T04:11:42.143Z,100762.09
2023-05-08T04:14:17.667Z,100761.09
2023-05-08T04:17:04.202Z,100764.75
2023-05-08T04:19:37.117Z,100783.03
2023-05-08T04:22:10.410Z,100772.75
2023-05-08T04:24:43.024Z,100774.78
2023-05-08T04:27:12.383Z,100783.41
2023-05-08T04:29:40.958Z,100769.94
2023-05-08T04:32:13.744Z,100777.06
2023-05-08T04:34:43.621Z,100776.16
2023-05-08T04:37:27.520Z,100770.16
2023-05-08T04:39:55.869Z,100761.75
2023-05-08T04:42:25.989Z,100781.16
2023-05-08T04:44:54.135Z,100778.03
2023-05-08T04:47:24.083Z,100766.16
2023-05-08T04:49:53.005Z,100777.38
2023-05-08T04:52:21.011Z,100766.16
2023-05-08T04:54:51.240Z,100767.00
2023-05-08T04:57:19.323Z,100783.41
2023-05-08T04:59:47.777Z,100781.47
2023-05-08T05:02:16.716Z,100785.88
2023-05-08T05:04:44.840Z,100782.34
2023-05-08T05:07:12.996Z,100798.81
2023-05-08T05:09:41.023Z,100788.03
2023-05-08T05:12:10.285Z,100791.97
2023-05-08T05:14:39.415Z,100792.59
2023-05-08T05:17:07.668Z,100800.25
2023-05-08T05:19:37.501Z,100800.66
2023-05-08T05:22:09.340Z,100784.31
2023-05-08T05:24:39.484Z,100811.22
2023-05-08T05:27:08.819Z,100799.75
2023-05-08T05:29:43.467Z,100805.31
2023-05-08T05:32:11.986Z,100815.91
2023-05-08T05:34:39.947Z,100818.53
2023-05-08T05:37:09.119Z,100819.06
2023-05-08T05:39:37.774Z,100819.41
2023-05-08T05:42:10.361Z,100805.09
2023-05-08T05:44:43.144Z,100824.56
2023-05-08T05:47:14.915Z,100824.72
2023-05-08T05:49:47.226Z,100823.38
2023-05-08T05:52:16.693Z,100827.81
2023-05-08T05:54:44.528Z,100824.19
2023-05-08T05:57:13.246Z,100841.13
2023-05-08T05:59:45.685Z,100838.22
2023-05-08T06:02:20.361Z,100829.56
2023-05-08T06:04:50.074Z,100840.72
2023-05-08T06:07:20.908Z,100826.44
2023-05-08T06:09:53.843Z,100832.31
2023-05-08T06:12:22.560Z,100837.09
2023-05-08T06:14:55.442Z,100834.13
2023-05-08T06:17:24.806Z,100845.59
2023-05-08T06:19:56.678Z,100847.63
2023-05-08T06:22:25.685Z,100846.84
2023-05-08T06:24:54.638Z,100843.41
2023-05-08T06:27:23.621Z,100847.91
2023-05-08T06:29:54.079Z,100846.25
2023-05-08T06:32:24.857Z,100861.25
2023-05-08T06:34:53.094Z,100856.41
2023-05-08T06:37:21.442Z,100860.94
2023-05-08T06:39:57.280Z,100869.53
2023-05-08T06:42:34.049Z,100848.88
2023-05-08T06:45:06.485Z,100872.47
2023-05-08T06:47:34.673Z,100867.25
2023-05-08T06:50:04.918Z,100865.88
2023-05-08T06:52:33.267Z,100869.16
2023-05-08T06:55:02.500Z,100852.72
2023-05-08T06:57:32.175Z,100869.91
2023-05-08T07:00:00.837Z,100865.34
2023-05-08T07:02:39.073Z,100869.88
2023-05-08T07:05:08.944Z,100851.78
2023-05-08T07:07:37.156Z,100860.94
2023-05-08T07:10:07.259Z,100848.13
2023-05-08T07:12:36.242Z,100863.69
2023-05-08T07:15:13.786Z,100847.50
2023-05-08T07:17:48.061Z,100848.03
2023-05-08T07:20:18.598Z,100854.81
2023-05-08T07:22:48.016Z,100852.44
2023-05-08T07:25:16.327Z,100862.22
2023-05-08T07:27:47.954Z,100855.13
2023-05-08T07:30:17.131Z,100858.84
2023-05-08T07:32:48.100Z,100861.56
2023-05-08T07:35:17.127Z,100865.16
2023-05-08T07:37:45.477Z,100864.78
2023-05-08T07:40:13.952Z,100858.19
2023-05-08T07:42:43.455Z,100852.97
2023-05-08T07:45:13.851Z,100866.97
2023-05-08T07:47:52.224Z,100853.19
2023-05-08T07:50:21.566Z,100864.97
2023-05-08T07:52:50.488Z,100860.78
2023-05-08T07:55:18.558Z,100860.41
2023-05-08T07:57:47.471Z,100860.69
2023-05-08T08:00:19.860Z,100866.16
2023-05-08T08:02:48.680Z,100863.19
2023-05-08T08:05:19.104Z,100861.75
2023-05-08T08:07:47.952Z,100854.25
2023-05-08T08:10:16.023Z,100861.75
2023-05-08T08:12:46.216Z,100864.47
2023-05-08T08:15:15.576Z,100853.44
2023-05-08T08:17:44.487Z,100852.00
2023-05-08T08:20:21.173Z,100862.09
2023-05-08T08:22:51.289Z,100855.53
2023-05-08T08:25:19.656Z,100856.97
2023-05-08T08:27:50.469Z,100863.03
2023-05-08T08:30:21.915Z,100859.94
2023-05-08T08:32:50.752Z,100860.91
2023-05-08T08:35:21.478Z,100852.84
2023-05-08T08:37:52.705Z,100854.53
2023-05-08T08:40:20.998Z,100852.53
2023-05-08T08:42:50.720Z,100853.75
2023-05-08T08:45:22.265Z,100845.50
2023-05-08T08:47:54.888Z,100853.84
2023-05-08T08:50:27.782Z,100855.34
2023-05-08T08:53:08.899Z,100862.06
2023-05-08T08:55:41.964Z,100858.03
2023-05-08T08:58:19.262Z,100862.97
2023-05-08T09:00:49.058Z,100862.09
2023-05-08T09:03:19.082Z,100871.84
2023-05-08T09:05:57.506Z,100868.47
2023-05-08T09:08:27.934Z,100870.47
2023-05-08T09:10:58.077Z,100864.75
2023-05-08T09:13:29.940Z,100875.59
2023-05-08T09:16:01.265Z,100864.41
2023-05-08T09:18:29.476Z,100865.09
2023-05-08T09:20:58.670Z,100875.22
2023-05-08T09:23:30.581Z,100868.34
2023-05-08T09:25:59.098Z,100862.66
2023-05-08T09:28:27.514Z,100873.09
2023-05-08T09:31:01.959Z,100880.47
2023-05-08T09:33:31.742Z,100877.63
2023-05-08T09:36:00.890Z,100883.09
2023-05-08T09:41:25.443Z,100881.91
2023-05-08T09:44:05.164Z,100887.94
2023-05-08T09:46:36.971Z,100892.09
2023-05-08T09:49:05.413Z,100899.16
2023-05-08T09:51:36.643Z,100895.50
2023-05-08T09:54:19.242Z,100891.09
2023-05-08T09:56:47.343Z,100901.91
2023-05-08T09:59:28.699Z,100906.19
2023-05-08T10:01:58.210Z,100893.81
2023-05-08T10:04:33.617Z,100906.09
2023-05-08T10:07:02.076Z,100895.38
2023-05-08T10:09:47.077Z,100905.97
2023-05-08T10:12:23.594Z,100903.69
2023-05-08T10:14:52.292Z,100901.34
2023-05-08T10:17:27.428Z,100895.75
2023-05-08T10:20:00.240Z,100893.16
2023-05-08T10:22:33.724Z,100883.91
2023-05-08T10:25:08.802Z,100899.19
2023-05-08T10:27:47.929Z,100896.84
2023-05-08T10:30:18.656Z,100890.78
2023-05-08T10:32:52.240Z,100871.66
2023-05-08T10:35:20.863Z,100884.97
2023-05-08T10:37:52.818Z,100868.41
2023-05-08T10:40:23.683Z,100878.09
2023-05-08T10:42:52.861Z,100878.88
2023-05-08T10:45:29.266Z,100878.50
2023-05-08T10:48:05.297Z,100884.56
2023-05-08T10:50:55.900Z,100883.59
2023-05-08T10:53:33.423Z,100878.81
2023-05-08T10:56:08.210Z,100887.25
2023-05-08T10:58:40.467Z,100883.28
2023-05-08T11:01:24.635Z,100876.53
2023-05-08T11:03:56.226Z,100872.44
2023-05-08T11:06:45.518Z,100865.72
2023-05-08T11:09:21.869Z,100860.72
2023-05-08T11:12:05.241Z,100826.94
2023-05-08T11:14:41.582Z,100853.50
2023-05-08T11:17:18.568Z,100857.28
2023-05-08T11:19:59.720Z,100852.94
2023-05-08T11:22:33.593Z,100853.22
2023-05-08T11:25:05.386Z,100854.47
2023-05-08T11:27:42.977Z,100849.31
2023-05-08T11:30:36.387Z,100850.47
2023-05-08T11:33:34.451Z,100846.66
2023-05-08T11:36:17.422Z,100851.25
2023-05-08T11:39:05.659Z,100851.41
2023-05-08T11:41:36.222Z,100857.88
2023-05-08T11:44:29.351Z,100849.59
2023-05-08T11:47:04.549Z,100843.78
2023-05-08T11:49:37.418Z,100852.75
2023-05-08T11:52:06.537Z,100841.34
2023-05-08T11:54:43.686Z,100843.66
2023-05-08T11:57:18.499Z,100838.81
2023-05-08T11:59:51.363Z,100830.75
2023-05-08T12:02:22.863Z,100827.75
2023-05-08T12:04:50.739Z,100837.38
2023-05-08T12:07:20.571Z,100839.03
2023-05-08T12:09:50.169Z,100824.91
2023-05-08T12:12:22.317Z,100840.72
2023-05-08T12:14:53.571Z,100828.50
2023-05-08T12:17:21.959Z,100844.25
2023-05-08T12:19:50.374Z,100838.19
2023-05-08T12:22:23.968Z,100836.28
2023-05-08T12:24:52.377Z,100842.63
2023-05-08T12:27:22.400Z,100843.16
2023-05-08T12:29:50.393Z,100841.97
2023-05-08T12:32:20.593Z,100836.03
2023-05-08T12:34:49.636Z,100824.16
2023-05-08T12:37:25.462Z,100823.16
2023-05-08T12:39:53.968Z,100828.75
2023-05-08T12:42:22.488Z,100826.63
2023-05-08T12:44:51.957Z,100823.94
2023-05-08T12:47:26.848Z,100823.69
2023-05-08T12:49:59.653Z,100830.06
2023-05-08T12:52:29.422Z,100834.41
2023-05-08T12:54:57.431Z,100821.41
2023-05-08T12:57:26.761Z,100812.75
2023-05-08T13:00:06.695Z,100811.44
2023-05-08T13:02:41.713Z,100800.91
2023-05-08T13:05:23.954Z,100816.97
2023-05-08T13:07:53.260Z,100809.47
2023-05-08T13:10:26.026Z,100809.09
2023-05-08T13:12:56.690Z,100783.63
2023-05-08T13:15:25.476Z,100801.13
2023-05-08T13:17:55.098Z,100796.41
2023-05-08T13:20:23.884Z,100792.06
2023-05-08T13:22:51.823Z,100808.09
2023-05-08T13:25:25.638Z,100790.94
2023-05-08T13:27:57.136Z,100778.16
2023-05-08T13:30:26.762Z,100776.03
2023-05-08T13:32:57.421Z,100777.09
2023-05-08T13:35:28.809Z,100784.47
2023-05-08T13:37:57.030Z,100776.56
2023-05-08T13:40:26.756Z,100781.25
2023-05-08T13:42:54.824Z,100784.94
2023-05-08T13:45:24.022Z,100783.59
2023-05-08T13:47:55.720Z,100772.72
2023-05-08T13:50:28.151Z,100780.94
2023-05-08T13:52:57.481Z,100789.00
2023-05-08T13:55:26.557Z,100771.47
2023-05-08T13:57:54.879Z,100766.03
2023-05-08T14:00:23.581Z,100767.31
2023-05-08T14:02:56.125Z,100778.09
2023-05-08T14:05:27.817Z,100765.72
2023-05-08T14:07:55.852Z,100768.81
2023-05-08T14:10:24.558Z,100761.09
2023-05-08T14:12:52.748Z,100755.25
2023-05-08T14:15:34.608Z,100763.66
2023-05-08T14:18:06.051Z,100754.66
2023-05-08T14:20:36.022Z,100759.19
2023-05-08T14:23:04.782Z,100752.41
2023-05-08T14:25:34.018Z,100752.63
2023-05-08T14:28:03.169Z,100736.13
2023-05-08T14:30:33.629Z,100747.72
2023-05-08T14:33:02.890Z,100750.47
2023-05-08T14:35:36.345Z,100749.06
2023-05-08T14:38:13.082Z,100748.84
2023-05-08T14:40:41.219Z,100753.16
2023-05-08T14:43:10.239Z,100734.22
2023-05-08T14:45:39.146Z,100739.09
2023-05-08T14:48:09.715Z,100730.31
2023-05-08T14:50:41.077Z,100736.53
2023-05-08T14:53:11.178Z,100726.75
2023-05-08T14:55:41.680Z,100724.81
2023-05-08T14:58:10.071Z,100730.09
2023-05-08T15:00:43.254Z,100696.28
2023-05-08T15:03:13.364Z,100705.41
2023-05-08T15:05:44.969Z,100701.59
2023-05-08T15:08:20.553Z,100714.84
2023-05-08T15:10:50.973Z,100717.78
2023-05-08T15:13:18.793Z,100715.59
2023-05-08T15:15:49.441Z,100708.84
2023-05-08T15:18:18.585Z,100704.94
2023-05-08T15:20:48.446Z,100710.84
2023-05-08T15:23:23.429Z,100715.69
2023-05-08T15:25:52.972Z,100711.72
2023-05-08T15:28:21.260Z,100716.69
2023-05-08T15:30:54.202Z,100709.00
2023-05-08T15:33:23.740Z,100720.28
2023-05-08T15:35:56.186Z,100726.75
2023-05-08T15:38:28.843Z,100713.44
2023-05-08T15:41:03.195Z,100731.13
2023-05-08T15:43:31.443Z,100726.41
2023-05-08T15:46:02.777Z,100725.84
2023-05-08T15:48:31.050Z,100728.59
2023-05-08T15:51:01.631Z,100732.19
2023-05-08T15:53:33.986Z,100730.25
2023-05-08T15:56:02.204Z,100738.25
2023-05-08T15:58:30.257Z,100740.72
2023-05-08T16:00:58.638Z,100739.38
2023-05-08T16:03:36.460Z,100745.16
2023-05-08T16:06:05.736Z,100739.09
2023-05-08T16:08:35.001Z,100744.56
2023-05-08T16:11:02.911Z,100753.63
2023-05-08T16:13:31.875Z,100752.03
2023-05-08T16:16:17.530Z,100748.13
2023-05-08T16:18:50.913Z,100751.50
2023-05-08T16:21:21.505Z,100763.97
2023-05-08T16:23:54.285Z,100758.19
2023-05-08T16:26:24.620Z,100747.63
2023-05-08T16:28:54.728Z,100749.88
2023-05-08T16:31:23.456Z,100741.00
2023-05-08T16:33:51.527Z,100750.19
2023-05-08T16:36:23.043Z,100747.03
2023-05-08T16:38:50.933Z,100741.25
2023-05-08T16:41:22.269Z,100750.53
2023-05-08T16:43:51.782Z,100747.53
2023-05-08T16:46:29.107Z,100746.56
2023-05-08T16:48:58.713Z,100744.88
2023-05-08T16:51:29.065Z,100756.78
2023-05-08T16:53:58.208Z,100743.47
2023-05-08T16:56:29.080Z,100741.50
2023-05-08T16:58:57.118Z,100737.72
2023-05-08T17:01:25.438Z,100740.41
2023-05-08T17:03:54.434Z,100736.31
2023-05-08T17:06:22.674Z,100735.78
2023-05-08T17:08:50.749Z,100740.00
2023-05-08T17:11:18.773Z,100734.34
2023-05-08T17:13:48.331Z,100734.59
2023-05-08T17:16:17.707Z,100735.97
2023-05-08T17:18:47.348Z,100729.06
2023-05-08T17:21:21.061Z,100733.16
2023-05-08T17:23:49.656Z,100728.44
2023-05-08T17:26:19.761Z,100732.59
2023-05-08T17:28:52.799Z,100723.25
2023-05-08T17:31:21.645Z,100717.16
2023-05-08T17:33:52.117Z,100723.34
2023-05-08T17:36:20.463Z,100727.06
2023-05-08T17:38:50.464Z,100732.16
2023-05-08T17:41:18.863Z,100723.63
2023-05-08T17:43:46.946Z,100720.41
2023-05-08T17:46:17.788Z,100720.06
2023-05-08T17:48:46.204Z,100728.50
2023-05-08T17:51:15.558Z,100729.59
2023-05-08T17:53:48.913Z,100730.50
2023-05-08T17:56:20.363Z,100729.59
2023-05-08T17:58:48.429Z,100734.50
2023-05-08T18:01:18.730Z,100740.75
2023-05-08T18:03:48.321Z,100732.41
2023-05-08T18:06:17.185Z,100729.66
2023-05-08T18:08:46.966Z,100736.00
2023-05-08T18:11:18.706Z,100728.78
2023-05-08T18:13:47.403Z,100738.97
2023-05-08T18:16:19.906Z,100724.31
2023-05-08T18:18:48.549Z,100744.94
2023-05-08T18:21:17.740Z,100737.44
2023-05-08T18:23:45.634Z,100735.53
2023-05-08T18:26:19.164Z,100736.44
2023-05-08T18:28:47.141Z,100717.56
2023-05-08T18:31:16.624Z,100747.84
2023-05-08T18:33:46.727Z,100742.84
2023-05-08T18:36:14.671Z,100739.34
2023-05-08T18:38:44.310Z,100747.34
2023-05-08T18:41:12.411Z,100738.16
2023-05-08T18:43:41.806Z,100745.53
2023-05-08T18:46:18.066Z,100743.03
2023-05-08T18:48:47.598Z,100746.06
2023-05-08T18:51:15.763Z,100751.44
2023-05-08T18:53:45.346Z,100746.53
2023-05-08T18:56:13.121Z,100746.16
2023-05-08T18:58:42.290Z,100754.69
2023-05-08T19:01:10.462Z,100759.06
2023-05-08T19:03:39.788Z,100750.97
2023-05-08T19:06:10.096Z,100758.69
2023-05-08T19:08:40.357Z,100765.00
2023-05-08T19:11:08.567Z,100763.94
2023-05-08T19:13:37.058Z,100762.59
2023-05-08T19:16:06.937Z,100759.25
2023-05-08T19:18:36.127Z,100759.59
2023-05-08T19:21:03.987Z,100758.19
2023-05-08T19:23:34.158Z,100757.59
2023-05-08T19:26:02.166Z,100748.09
2023-05-08T19:28:32.027Z,100763.56
2023-05-08T19:31:03.446Z,100756.66
2023-05-08T19:33:32.909Z,100761.63
2023-05-08T19:36:03.623Z,100751.03
2023-05-08T19:38:32.826Z,100745.94
2023-05-08T19:41:01.958Z,100738.72
2023-05-08T19:43:30.505Z,100744.53
2023-05-08T19:45:58.557Z,100727.41
2023-05-08T19:48:28.413Z,100752.19
2023-05-08T19:50:58.357Z,100746.66
2023-05-08T19:53:29.030Z,100751.03
2023-05-08T19:56:00.785Z,100748.94
2023-05-08T19:58:28.986Z,100767.56
2023-05-08T20:00:59.783Z,100763.25
2023-05-08T20:03:28.216Z,100760.16
2023-05-08T20:05:57.592Z,100747.97
2023-05-08T20:08:25.675Z,100758.00
2023-05-08T20:10:54.120Z,100742.47
2023-05-08T20:13:23.840Z,100749.00
2023-05-08T20:15:56.953Z,100750.47
2023-05-08T20:18:27.498Z,100751.78
2023-05-08T20:20:56.325Z,100756.09
2023-05-08T20:23:25.426Z,100761.78
2023-05-08T20:25:55.272Z,100748.97
2023-05-08T20:28:26.188Z,100757.53
2023-05-08T20:30:58.812Z,100751.56
2023-05-08T20:33:27.917Z,100766.13
2023-05-08T20:35:59.746Z,100759.25
2023-05-08T20:38:29.746Z,100754.19
2023-05-08T20:41:00.886Z,100759.53
2023-05-08T20:43:34.609Z,100752.06
2023-05-08T20:46:02.618Z,100759.06
2023-05-08T20:48:32.039Z,100757.38
2023-05-08T20:51:00.993Z,100749.09
2023-05-08T20:53:29.221Z,100749.00
2023-05-08T20:56:04.238Z,100745.59
2023-05-08T20:58:35.212Z,100748.94
2023-05-08T21:01:03.277Z,100748.25
2023-05-08T21:03:31.816Z,100735.63
2023-05-08T21:06:00.824Z,100744.69
2023-05-08T21:08:29.434Z,100735.72
2023-05-08T21:10:57.185Z,100736.38
2023-05-08T21:13:27.004Z,100724.06
2023-05-08T21:15:56.786Z,100721.56
2023-05-08T21:18:27.703Z,100730.88
2023-05-08T21:20:55.934Z,100727.00
2023-05-08T21:23:25.672Z,100725.16
2023-05-08T21:25:53.577Z,100724.56
2023-05-08T21:28:22.092Z,100717.69
2023-05-08T21:30:54.276Z,100696.25
2023-05-08T21:33:25.766Z,100719.59
2023-05-08T21:35:57.441Z,100719.59
2023-05-08T21:38:25.543Z,100722.59
2023-05-08T21:40:53.846Z,100723.66
2023-05-08T21:43:22.327Z,100729.88
2023-05-08T21:45:51.871Z,100729.19
2023-05-08T21:48:19.969Z,100728.59
2023-05-08T21:50:49.038Z,100727.28
2023-05-08T21:53:19.148Z,100726.47
2023-05-08T21:55:50.976Z,100728.06
2023-05-08T21:58:19.421Z,100727.81
2023-05-08T22:00:47.441Z,100712.22
2023-05-08T22:03:16.688Z,100717.28
2023-05-08T22:05:47.722Z,100698.91
2023-05-08T22:08:17.295Z,100705.91
2023-05-08T22:10:46.184Z,100703.66
2023-05-08T22:13:14.726Z,100715.09
2023-05-08T22:15:44.144Z,100715.84
2023-05-08T22:18:13.350Z,100687.38
2023-05-08T22:20:41.451Z,100687.63
2023-05-08T22:23:09.752Z,100703.19
2023-05-08T22:25:39.528Z,100698.28
2023-05-08T22:28:08.297Z,100688.22
2023-05-08T22:30:37.320Z,100686.78
2023-05-08T22:33:09.215Z,100690.75
2023-05-08T22:35:38.287Z,100687.91
2023-05-08T22:38:06.040Z,100682.09
2023-05-08T22:40:35.684Z,100678.75
2023-05-08T22:43:07.513Z,100679.34
2023-05-08T22:45:35.683Z,100670.06
2023-05-08T22:48:06.751Z,100667.75
2023-05-08T22:50:36.459Z,100661.72
2023-05-08T22:53:08.195Z,100666.34
2023-05-08T22:55:36.511Z,100661.53
2023-05-08T22:58:06.896Z,100653.59
2023-05-08T23:00:35.319Z,100652.44
2023-05-08T23:03:03.670Z,100656.25
2023-05-08T23:05:32.008Z,100654.03
2023-05-08T23:08:01.213Z,100646.63
2023-05-08T23:10:31.937Z,100655.78
2023-05-08T23:12:59.709Z,100649.22
2023-05-08T23:15:31.070Z,100643.31
2023-05-08T23:18:01.764Z,100648.59
2023-05-08T23:20:29.502Z,100646.50
2023-05-08T23:22:57.948Z,100643.81
2023-05-08T23:25:27.584Z,100642.03
2023-05-08T23:27:55.523Z,100637.53
2023-05-08T23:30:23.488Z,100630.91
2023-05-08T23:32:55.862Z,100633.22
2023-05-08T23:35:24.845Z,100625.75
2023-05-08T23:37:54.261Z,100621.75
2023-05-08T23:40:22.655Z,100635.31
2023-05-08T23:42:52.023Z,100622.34
2023-05-08T23:45:20.067Z,100622.69
2023-05-08T23:47:49.901Z,100623.06
2023-05-08T23:50:20.427Z,100608.44
2023-05-08T23:52:49.159Z,100619.75
2023-05-08T23:55:17.079Z,100616.56
2023-05-08T23:57:45.756Z,100622.59
